»·PEaware :: KENT97 KSPS-KSPS

KENT97 :: KSPS-KSPS

FLIGHT INFORMATION

Flight Status: Arrived
Operator: Unknown
More flights by this operator :: More flights under this callsign
Pilot: 80 FTW ENJJPT (22981)
Aircraft: NORTHROP T-38 AT-38 TALON
(T38)
More flights by this aircraft type
Origin: KSPS Sheppard AFB/Wichita Falls Mu
United States
Destination: KSPS Sheppard AFB/Wichita Falls Mu
United States
More flights between these airports :: More routes between these airports
Route: +MIKKE 1
File this flight plan on PilotEdge
Remarks:
Altitude:
(Current/Filed)
220ft
Speed:
(Current/Filed)
0kts
Departed: 28-May-20 07:01 AM
Arrived: 28-May-20 07:53 AM
Distance/Time
Traveled:
1nm/0:52
Distance/Time
To Go:
Arrived

Flight Plot

Page will automatically refresh every two minutes.

Flight plan parsing failed; only flown route is shown


Map Options




Map Legend


Flown Route
Filed Route
Departure Airport
Arrival Airport
Navaid (VOR, NDB)
Fix

Horizontal Profiles

Position Reports

Time Latitude Longitude Heading Altitude Ground
Speed
28-May-20 07:00 34.002975 -98.499083 155 1022ft 0kts
28-May-20 07:01 33.975047 -98.485350 157 1631ft 320kts
28-May-20 07:02 33.895031 -98.492868 236 7294ft 345kts
28-May-20 07:03 33.870760 -98.609642 258 11999ft 405kts
28-May-20 07:04 33.864456 -98.647753 258 13544ft 409kts
28-May-20 07:05 33.864456 -98.647753 258 13544ft 409kts
28-May-20 07:06 33.848681 -98.756753 261 16727ft 440kts
28-May-20 07:07 33.835267 -98.895996 278 20112ft 462kts
28-May-20 07:08 33.866072 -99.044334 284 21862ft 466kts
28-May-20 07:09 33.877575 -99.131590 275 22210ft 503kts
28-May-20 07:09 33.884446 -99.230224 275 21684ft 479kts
28-May-20 07:11 33.921112 -99.337800 63 16937ft 533kts
28-May-20 07:11 33.915194 -99.203030 96 16019ft 444kts
28-May-20 07:13 33.963336 -99.172398 295 14887ft 444kts
28-May-20 07:13 33.963336 -99.172398 295 14887ft 444kts
28-May-20 07:14 33.963336 -99.172398 295 14887ft 444kts
28-May-20 07:15 33.963336 -99.172398 295 14887ft 444kts
28-May-20 07:16 33.963336 -99.172398 295 14887ft 444kts
28-May-20 07:17 33.963336 -99.172398 295 14887ft 444kts
28-May-20 07:18 33.963336 -99.172398 295 14887ft 444kts
28-May-20 07:19 33.963336 -99.172398 295 14887ft 444kts
28-May-20 07:20 33.976424 -99.224516 231 13882ft 473kts
28-May-20 07:21 33.947337 -99.339209 38 14711ft 358kts
28-May-20 07:22 33.953817 -99.332064 47 14540ft 348kts
28-May-20 07:23 33.955336 -99.330062 48 14485ft 348kts
28-May-20 07:24 33.955336 -99.330062 48 14485ft 348kts
28-May-20 07:25 33.955336 -99.330062 48 14485ft 348kts
28-May-20 07:26 33.955336 -99.330062 48 14485ft 348kts
28-May-20 07:27 33.956484 -99.328539 64 14434ft 333kts
28-May-20 07:28 33.949142 -99.274728 114 13975ft 311kts
28-May-20 07:29 33.938448 -99.246691 115 14538ft 278kts
28-May-20 07:30 33.936193 -99.240994 115 14521ft 268kts
28-May-20 07:31 33.894284 -99.240761 230 13699ft 210kts
28-May-20 07:32 33.890721 -99.245993 232 13598ft 214kts
28-May-20 07:33 33.861559 -99.296669 235 9755ft 295kts
28-May-20 07:34 33.856632 -99.306051 253 11294ft 189kts
28-May-20 07:35 33.872211 -99.319896 33 11925ft 253kts
28-May-20 07:36 33.928464 -99.245134 69 11545ft 335kts
28-May-20 07:37 33.960423 -99.133559 70 11965ft 370kts
28-May-20 07:38 33.993958 -99.015236 72 9140ft 361kts
28-May-20 07:39 34.020362 -98.907163 70 6486ft 348kts
28-May-20 07:40 34.049774 -98.810938 69 3949ft 328kts
28-May-20 07:41 34.075792 -98.737236 65 2696ft 285kts
28-May-20 07:42 34.112360 -98.640269 59 2724ft 297kts
28-May-20 07:43 34.127600 -98.551922 134 2338ft 275kts
28-May-20 07:44 34.067090 -98.530805 165 2105ft 217kts
28-May-20 07:45 34.012107 -98.503352 159 1151ft 206kts
28-May-20 07:46 33.956755 -98.489046 262 2782ft 228kts
28-May-20 07:47 34.000696 -98.523303 335 2731ft 217kts
28-May-20 07:48 34.002717 -98.499138 158 1041ft 183kts
28-May-20 07:49 33.966148 -98.508809 327 2835ft 244kts
28-May-20 07:50 34.021372 -98.531869 45 2141ft 205kts
28-May-20 07:51 33.991889 -98.493944 158 1022ft 119kts
28-May-20 07:52 33.981258 -98.489027 159 1022ft 27kts
28-May-20 07:53 33.978518 -98.488641 247 1022ft 0kts
28-May-20 07:54 33.978518 -98.488642 249 1022ft 0kts
28-May-20 07:55 33.978517 -98.488643 250 1022ft 0kts
28-May-20 07:56 33.978517 -98.488643 250 1022ft 0kts
28-May-20 07:57 33.978517 -98.488643 250 1022ft 0kts
28-May-20 07:58 33.978517 -98.488643 250 1022ft 0kts

Navigation Log

Ident Type
Flight plan parsing failed, navigation log unavailable